createdAt,value
2023-02-03T00:03:15.559Z,29.50
2023-02-03T00:09:17.731Z,23.45
2023-02-03T00:15:20.398Z,25.45
2023-02-03T00:21:22.287Z,21.70
2023-02-03T00:27:24.207Z,22.00
2023-02-03T00:33:25.948Z,21.77
2023-02-03T00:39:27.853Z,20.48
2023-02-03T00:45:29.753Z,19.55
2023-02-03T00:51:32.420Z,21.63
2023-02-03T00:57:34.277Z,20.83
2023-02-03T01:03:36.511Z,20.23
2023-02-03T01:09:38.581Z,21.52
2023-02-03T01:15:47.917Z,22.23
2023-02-03T01:21:49.906Z,21.20
2023-02-03T01:27:52.007Z,19.08
2023-02-03T01:33:54.908Z,16.77
2023-02-03T01:39:57.676Z,20.20
2023-02-03T01:46:02.967Z,17.77
2023-02-03T01:52:05.752Z,20.05
2023-02-03T01:58:25.795Z,20.17
2023-02-03T02:04:37.042Z,23.17
2023-02-03T02:10:39.372Z,18.92
2023-02-03T02:17:04.407Z,20.70
2023-02-03T02:23:25.046Z,19.55
2023-02-03T02:29:26.891Z,21.10
2023-02-03T02:35:38.648Z,13.40
2023-02-03T02:41:56.263Z,19.70
2023-02-03T02:48:10.351Z,18.25
2023-02-03T02:54:17.890Z,16.65
2023-02-03T03:00:20.658Z,17.60
2023-02-03T03:06:31.392Z,15.13
2023-02-03T03:12:37.688Z,16.95
2023-02-03T03:18:45.976Z,20.13
2023-02-03T03:24:52.575Z,20.33
2023-02-03T03:30:54.644Z,16.77
2023-02-03T03:37:32.124Z,17.70
2023-02-03T03:43:39.080Z,16.30
2023-02-03T03:49:45.144Z,16.27
2023-02-03T03:55:50.539Z,19.60
2023-02-03T04:01:53.321Z,16.98
2023-02-03T04:07:55.242Z,13.52
2023-02-03T04:13:57.081Z,16.30
2023-02-03T04:19:58.887Z,15.70
2023-02-03T04:26:01.763Z,16.92
2023-02-03T04:32:04.060Z,14.45
2023-02-03T04:38:05.851Z,15.27
2023-02-03T04:44:07.685Z,14.05
2023-02-03T04:50:09.807Z,10.82
2023-02-03T04:56:11.857Z,13.65
2023-02-03T05:02:14.215Z,15.52
2023-02-03T05:08:16.421Z,12.50
2023-02-03T05:14:18.363Z,13.23
2023-02-03T05:20:20.915Z,9.85
2023-02-03T05:26:24.265Z,13.88
2023-02-03T05:32:26.113Z,13.02
2023-02-03T05:38:28.262Z,11.35
2023-02-03T05:44:30.409Z,11.07
2023-02-03T05:50:33.553Z,9.98
2023-02-03T05:56:35.830Z,10.32
2023-02-03T06:02:38.270Z,9.65
2023-02-03T06:08:40.701Z,11.48
2023-02-03T06:14:42.585Z,15.40
2023-02-03T06:20:44.472Z,8.43
2023-02-03T06:26:46.506Z,9.82
2023-02-03T06:32:48.819Z,10.65
2023-02-03T06:38:50.663Z,14.45
2023-02-03T06:44:52.638Z,12.38
2023-02-03T06:50:54.675Z,8.75
2023-02-03T06:56:56.591Z,10.10
2023-02-03T07:02:59.720Z,9.73
2023-02-03T07:09:04.283Z,9.38
2023-02-03T07:15:06.782Z,11.00
2023-02-03T07:21:08.539Z,8.95
2023-02-03T07:27:10.281Z,9.73
2023-02-03T07:33:12.085Z,10.98
2023-02-03T07:39:16.450Z,11.50
2023-02-03T07:45:19.052Z,11.80
2023-02-03T07:51:21.045Z,13.95
2023-02-03T07:57:24.953Z,14.43
2023-02-03T08:03:26.766Z,12.73
2023-02-03T08:09:28.505Z,11.73
2023-02-03T08:15:30.342Z,12.65
2023-02-03T08:21:32.171Z,13.32
2023-02-03T08:27:34.431Z,10.48
2023-02-03T08:33:36.144Z,11.50
2023-02-03T08:39:40.555Z,14.13
2023-02-03T08:45:42.487Z,11.48
2023-02-03T08:51:45.988Z,15.93
2023-02-03T08:57:47.894Z,10.00
2023-02-03T09:03:49.697Z,10.40
2023-02-03T09:09:52.821Z,10.52
2023-02-03T09:15:54.550Z,7.95
2023-02-03T09:21:57.341Z,10.73
2023-02-03T09:28:01.937Z,13.63
2023-02-03T09:34:03.803Z,22.13
2023-02-03T09:40:06.121Z,12.88
2023-02-03T09:46:19.780Z,13.20
2023-02-03T09:52:25.375Z,14.33
2023-02-03T09:58:33.069Z,15.63
2023-02-03T10:04:41.571Z,9.80
2023-02-03T10:11:13.702Z,12.05
2023-02-03T10:17:26.429Z,10.15
2023-02-03T10:23:36.282Z,8.27
2023-02-03T10:29:42.764Z,10.30
2023-02-03T10:35:57.546Z,8.07
2023-02-03T10:48:04.452Z,7.70
2023-02-03T10:54:27.804Z,10.90
2023-02-03T11:00:32.718Z,12.45
2023-02-03T11:06:36.310Z,11.57
2023-02-03T11:12:38.199Z,15.83
2023-02-03T11:18:48.234Z,15.30
2023-02-03T11:24:50.099Z,18.77
2023-02-03T11:30:59.096Z,15.55
2023-02-03T11:37:27.283Z,14.93
2023-02-03T11:43:30.590Z,15.45
2023-02-03T11:50:11.614Z,16.95
2023-02-03T11:56:20.912Z,20.90
2023-02-03T12:03:12.086Z,22.30
2023-02-03T12:09:23.172Z,19.98
2023-02-03T12:15:31.092Z,18.83
2023-02-03T12:21:47.443Z,19.08
2023-02-03T12:28:09.709Z,16.48
2023-02-03T12:34:28.213Z,23.65
2023-02-03T12:40:37.594Z,17.08
2023-02-03T12:46:56.079Z,18.35
2023-02-03T12:53:06.130Z,20.95
2023-02-03T12:59:16.196Z,28.92
2023-02-03T13:05:53.115Z,23.23
2023-02-03T13:12:07.033Z,18.58
2023-02-03T13:18:17.562Z,18.87
2023-02-03T13:24:23.447Z,21.80
2023-02-03T13:30:40.960Z,19.67
2023-02-03T13:37:12.432Z,19.15
2023-02-03T13:43:37.236Z,20.85
2023-02-03T13:49:46.262Z,26.33
2023-02-03T13:55:58.077Z,20.50
2023-02-03T14:02:38.713Z,29.90
2023-02-03T14:08:40.503Z,15.40
2023-02-03T14:14:43.609Z,21.73
2023-02-03T14:20:49.019Z,22.17
2023-02-03T14:26:53.981Z,21.10
2023-02-03T14:32:58.690Z,21.98
2023-02-03T14:39:04.134Z,18.42
2023-02-03T14:45:17.735Z,25.10
2023-02-03T14:51:35.016Z,29.67
2023-02-03T14:57:53.904Z,21.55
2023-02-03T15:04:13.780Z,22.52
2023-02-03T15:10:22.164Z,16.70
2023-02-03T15:16:27.230Z,16.67
2023-02-03T15:22:30.808Z,16.02
2023-02-03T15:28:34.676Z,20.52
2023-02-03T15:34:41.549Z,14.77
2023-02-03T15:40:54.855Z,21.42
2023-02-03T15:46:57.996Z,19.13
2023-02-03T15:53:47.165Z,16.90
2023-02-03T15:59:55.567Z,18.02
2023-02-03T16:05:57.528Z,16.58
2023-02-03T16:12:30.061Z,18.80
2023-02-03T16:18:38.052Z,25.65
2023-02-03T16:24:43.014Z,25.58
2023-02-03T16:31:18.682Z,23.83
2023-02-03T16:37:41.991Z,26.10
2023-02-03T16:44:05.081Z,25.08
2023-02-03T16:50:37.761Z,22.83
2023-02-03T16:56:41.613Z,20.42
2023-02-03T17:02:46.435Z,21.85
2023-02-03T17:08:48.186Z,22.92
2023-02-03T17:14:50.631Z,25.33
2023-02-03T17:20:52.821Z,21.83
2023-02-03T17:26:56.384Z,20.33
2023-02-03T17:58:01.423Z,21.25
2023-02-03T18:04:04.795Z,16.48
2023-02-03T18:10:06.796Z,17.05
2023-02-03T18:16:15.297Z,20.13
2023-02-03T18:22:17.091Z,16.52
2023-02-03T18:28:19.209Z,22.20
2023-02-03T18:34:20.997Z,20.55
2023-02-03T18:40:22.828Z,24.00
2023-02-03T18:46:41.812Z,27.13
2023-02-03T18:52:44.065Z,22.63
2023-02-03T18:58:46.519Z,22.60
2023-02-03T19:04:49.059Z,24.48
2023-02-03T19:10:54.865Z,20.70
2023-02-03T19:16:57.407Z,20.20
2023-02-03T19:23:00.502Z,22.60
2023-02-03T19:29:05.049Z,24.20
2023-02-03T19:35:07.112Z,17.40
2023-02-03T19:41:09.851Z,16.25
2023-02-03T19:47:11.624Z,14.80
2023-02-03T19:53:14.890Z,21.27
2023-02-03T19:59:16.728Z,22.90
2023-02-03T20:05:19.402Z,19.77
2023-02-03T20:11:21.617Z,22.52
2023-02-03T20:17:24.343Z,21.85
2023-02-03T20:23:26.544Z,23.30
2023-02-03T20:29:28.475Z,23.52
2023-02-03T20:35:30.838Z,22.17
2023-02-03T20:41:32.849Z,22.80
2023-02-03T20:47:34.733Z,26.13
2023-02-03T20:53:37.071Z,24.83
2023-02-03T20:59:39.103Z,32.10
2023-02-03T21:05:42.884Z,23.33
2023-02-03T21:11:44.781Z,27.07
2023-02-03T21:17:46.713Z,21.33
2023-02-03T21:23:48.534Z,26.58
2023-02-03T21:29:50.466Z,21.42
2023-02-03T21:35:52.279Z,19.90
2023-02-03T21:41:54.616Z,26.20
2023-02-03T21:48:01.567Z,26.90
2023-02-03T21:54:27.371Z,29.70
2023-02-03T22:00:43.421Z,21.95
2023-02-03T22:06:50.242Z,29.20
2023-02-03T22:12:52.229Z,33.78
2023-02-03T22:18:54.039Z,25.52
2023-02-03T22:24:55.866Z,25.85
2023-02-03T22:30:57.816Z,23.02
2023-02-03T22:36:59.621Z,37.83
2023-02-03T22:43:01.534Z,26.08
2023-02-03T22:49:03.307Z,27.75
2023-02-03T22:55:06.544Z,26.25
2023-02-03T23:01:08.369Z,26.65
2023-02-03T23:07:10.153Z,26.77
2023-02-03T23:13:12.042Z,25.50
2023-02-03T23:19:13.892Z,30.45
2023-02-03T23:25:18.318Z,23.02
2023-02-03T23:31:20.260Z,36.22
2023-02-03T23:37:22.665Z,28.75
2023-02-03T23:43:24.597Z,32.45
2023-02-03T23:49:26.522Z,31.90
2023-02-03T23:55:29.450Z,25.90
